Time;durP1;ratioP1;P1;durP2;ratioP2;P2;SDS_P1;SDS_P2;PMS_P1;PMS_P2;Temp;Humidity;BMP_temperature;BMP_pressure;BME280_temperature;BME280_humidity;BME280_pressure;Samples;Min_cycle;Max_cycle;Signal;HPM_P1;HPM_P2
2023/06/25 00:00:08;;;;;;;14.85;8.27;;;;;;;;;;5044546;28;20033;-67
2023/06/25 00:02:45;;;;;;;21.02;9.32;;;;;;;;;;5043364;28;20047;-68
2023/06/25 00:05:10;;;;;;;18.48;8.50;;;;;;;;;;5044622;28;20021;-68
2023/06/25 00:07:36;;;;;;;15.10;8.93;;;;;;;;;;5043999;28;20037;-67
2023/06/25 00:10:02;;;;;;;16.42;8.25;;;;;;;;;;5043510;28;20630;-67
2023/06/25 00:12:27;;;;;;;19.05;8.27;;;;;;;;;;5044180;28;20098;-69
2023/06/25 00:14:53;;;;;;;15.27;7.78;;;;;;;;;;5045129;28;20091;-67
2023/06/25 00:17:19;;;;;;;12.38;7.03;;;;;;;;;;5043688;28;20033;-67
2023/06/25 00:19:45;;;;;;;12.07;6.60;;;;;;;;;;5043238;28;20056;-68
2023/06/25 00:22:11;;;;;;;12.65;6.78;;;;;;;;;;5040775;28;20037;-67
2023/06/25 00:24:38;;;;;;;11.05;6.18;;;;;;;;;;5044177;28;20025;-67
2023/06/25 00:27:04;;;;;;;9.32;6.22;;;;;;;;;;5044011;28;20715;-67
2023/06/25 00:29:29;;;;;;;8.82;5.80;;;;;;;;;;5058891;28;20041;-67
2023/06/25 00:31:55;;;;;;;8.82;6.18;;;;;;;;;;5044659;28;20037;-67
2023/06/25 00:34:20;;;;;;;12.73;6.43;;;;;;;;;;5074223;28;20099;-67
2023/06/25 00:36:51;;;;;;;7.85;5.63;;;;;;;;;;5044122;28;20071;-67
2023/06/25 00:39:18;;;;;;;8.57;5.55;;;;;;;;;;5073801;28;20040;-67
2023/06/25 00:41:44;;;;;;;9.20;5.30;;;;;;;;;;5042493;28;20254;-67
2023/06/25 00:44:10;;;;;;;7.90;5.38;;;;;;;;;;5044160;28;20622;-67
2023/06/25 00:46:36;;;;;;;7.45;5.45;;;;;;;;;;5059499;28;20040;-67
2023/06/25 00:49:05;;;;;;;7.50;5.05;;;;;;;;;;5059361;28;20036;-67
2023/06/25 00:51:34;;;;;;;7.85;5.50;;;;;;;;;;5043196;28;20428;-67
2023/06/25 00:54:01;;;;;;;5.75;5.03;;;;;;;;;;5063405;28;20041;-67
2023/06/25 00:56:29;;;;;;;6.43;5.32;;;;;;;;;;5048258;28;20094;-67
2023/06/25 00:59:02;;;;;;;6.90;5.72;;;;;;;;;;5047225;28;20041;-67
2023/06/25 01:01:54;;;;;;;6.78;4.95;;;;;;;;;;5047631;28;20060;-68
2023/06/25 01:04:27;;;;;;;6.40;5.03;;;;;;;;;;5045925;28;20032;-67
2023/06/25 01:06:57;;;;;;;6.63;5.40;;;;;;;;;;5076291;28;20051;-67
2023/06/25 01:09:25;;;;;;;8.93;5.72;;;;;;;;;;5062531;28;20578;-68
2023/06/25 01:12:01;;;;;;;7.60;6.03;;;;;;;;;;5048171;28;20454;-67
2023/06/25 01:14:28;;;;;;;6.97;5.45;;;;;;;;;;5081230;28;20044;-67
2023/06/25 01:16:55;;;;;;;7.25;5.80;;;;;;;;;;5049377;28;20112;-67
2023/06/25 01:19:25;;;;;;;9.52;5.63;;;;;;;;;;5045737;28;20040;-67
2023/06/25 01:21:52;;;;;;;8.20;5.85;;;;;;;;;;5045706;28;20033;-67
2023/06/25 01:24:17;;;;;;;7.72;5.70;;;;;;;;;;5047539;28;20032;-67
2023/06/25 01:26:44;;;;;;;7.22;5.70;;;;;;;;;;5045849;28;20047;-67
2023/06/25 01:29:10;;;;;;;7.50;5.55;;;;;;;;;;5045467;28;20475;-67
2023/06/25 01:31:35;;;;;;;8.23;6.65;;;;;;;;;;5045803;28;20709;-67
2023/06/25 01:34:02;;;;;;;6.93;5.50;;;;;;;;;;5047387;28;20060;-67
2023/06/25 01:36:27;;;;;;;7.78;5.88;;;;;;;;;;5061477;28;20120;-67
2023/06/25 01:38:53;;;;;;;6.88;5.53;;;;;;;;;;5047039;28;20051;-67
2023/06/25 01:41:18;;;;;;;6.38;4.78;;;;;;;;;;5047131;28;20029;-67
2023/06/25 01:43:44;;;;;;;5.90;5.30;;;;;;;;;;5062551;28;20075;-67
2023/06/25 01:46:09;;;;;;;6.03;5.43;;;;;;;;;;5044690;28;20041;-67
2023/06/25 01:48:35;;;;;;;6.22;5.63;;;;;;;;;;5047054;28;20059;-67
2023/06/25 01:51:01;;;;;;;6.35;5.63;;;;;;;;;;5046832;28;20534;-68
2023/06/25 01:53:26;;;;;;;6.97;5.40;;;;;;;;;;5061415;28;20059;-67
2023/06/25 01:55:52;;;;;;;7.75;5.80;;;;;;;;;;5045090;28;20087;-68
2023/06/25 01:58:18;;;;;;;6.80;5.35;;;;;;;;;;5044336;28;20037;-67
2023/06/25 02:00:43;;;;;;;6.82;5.60;;;;;;;;;;5042204;28;20692;-67
2023/06/25 02:03:09;;;;;;;6.13;5.45;;;;;;;;;;5044349;28;20033;-67
2023/06/25 02:05:35;;;;;;;8.57;6.00;;;;;;;;;;5046534;28;20021;-67
2023/06/25 02:08:00;;;;;;;6.57;5.53;;;;;;;;;;5061821;28;20119;-67
2023/06/25 02:10:27;;;;;;;7.25;5.53;;;;;;;;;;5077333;28;20077;-67
2023/06/25 02:12:52;;;;;;;7.45;5.55;;;;;;;;;;5048245;28;20044;-67
2023/06/25 02:15:18;;;;;;;5.70;5.20;;;;;;;;;;5045149;28;20041;-67
2023/06/25 02:17:44;;;;;;;6.53;5.32;;;;;;;;;;5046579;28;20029;-67
2023/06/25 02:20:10;;;;;;;7.45;6.15;;;;;;;;;;5060786;28;20055;-67
2023/06/25 02:22:36;;;;;;;6.70;5.45;;;;;;;;;;5031823;28;20116;-68
2023/06/25 02:25:01;;;;;;;6.63;5.68;;;;;;;;;;5042669;28;20105;-68
2023/06/25 02:27:27;;;;;;;5.72;5.13;;;;;;;;;;5044445;28;20123;-68
2023/06/25 02:29:52;;;;;;;7.18;5.22;;;;;;;;;;5060364;28;20123;-67
2023/06/25 02:32:18;;;;;;;5.80;5.20;;;;;;;;;;5046146;28;20095;-67
2023/06/25 02:34:45;;;;;;;7.15;5.63;;;;;;;;;;5046743;28;20522;-67
2023/06/25 02:37:13;;;;;;;7.40;5.85;;;;;;;;;;5061616;28;20108;-68
2023/06/25 02:39:38;;;;;;;7.22;5.88;;;;;;;;;;5041261;28;20037;-67
2023/06/25 02:42:04;;;;;;;7.07;5.80;;;;;;;;;;5044386;28;20098;-67
2023/06/25 02:44:29;;;;;;;6.95;5.65;;;;;;;;;;5045376;28;20500;-68
2023/06/25 02:46:55;;;;;;;8.95;6.05;;;;;;;;;;5044653;28;20048;-68
2023/06/25 02:49:21;;;;;;;6.22;5.45;;;;;;;;;;5060525;28;20053;-67
2023/06/25 02:51:47;;;;;;;6.07;5.35;;;;;;;;;;5045774;28;20075;-68
2023/06/25 02:54:12;;;;;;;6.38;5.68;;;;;;;;;;5045613;28;20037;-67
2023/06/25 02:56:38;;;;;;;6.63;5.45;;;;;;;;;;5060584;28;20044;-68
2023/06/25 02:59:03;;;;;;;6.70;4.80;;;;;;;;;;5042438;28;20041;-67
2023/06/25 03:01:29;;;;;;;8.55;5.65;;;;;;;;;;5060624;28;20065;-67
2023/06/25 03:03:55;;;;;;;7.93;5.00;;;;;;;;;;5044831;28;20041;-68
2023/06/25 03:06:21;;;;;;;6.03;4.78;;;;;;;;;;5044258;28;20037;-67
2023/06/25 03:08:47;;;;;;;5.97;5.35;;;;;;;;;;5060618;28;20032;-67
2023/06/25 03:11:14;;;;;;;6.03;5.43;;;;;;;;;;5049069;28;20040;-67
2023/06/25 03:13:40;;;;;;;6.15;5.22;;;;;;;;;;5050153;28;20043;-67
2023/06/25 03:16:06;;;;;;;6.90;5.85;;;;;;;;;;5050324;28;20041;-67
2023/06/25 03:18:32;;;;;;;6.03;5.32;;;;;;;;;;5047114;28;20522;-67
2023/06/25 03:20:58;;;;;;;7.57;5.65;;;;;;;;;;5049474;28;20071;-67
2023/06/25 03:23:23;;;;;;;8.55;5.55;;;;;;;;;;5048029;28;20037;-67
2023/06/25 03:25:49;;;;;;;7.38;5.65;;;;;;;;;;5043055;28;20522;-67
2023/06/25 03:28:26;;;;;;;6.72;5.25;;;;;;;;;;5070826;28;20037;-67
2023/06/25 03:30:53;;;;;;;6.28;5.55;;;;;;;;;;5042957;28;20668;-67
2023/06/25 03:33:18;;;;;;;6.28;5.25;;;;;;;;;;5044110;28;20037;-67
2023/06/25 03:35:44;;;;;;;6.10;5.50;;;;;;;;;;5042888;28;20055;-66
2023/06/25 03:38:10;;;;;;;6.00;5.40;;;;;;;;;;5043157;28;20048;-67
2023/06/25 03:40:38;;;;;;;7.05;5.50;;;;;;;;;;5059946;28;20495;-67
2023/06/25 03:43:03;;;;;;;7.97;6.10;;;;;;;;;;5044869;28;20031;-67
2023/06/25 03:45:30;;;;;;;5.78;5.25;;;;;;;;;;5042574;28;20036;-66
2023/06/25 03:47:57;;;;;;;6.47;5.20;;;;;;;;;;5041405;28;20669;-67
2023/06/25 03:50:24;;;;;;;6.93;5.13;;;;;;;;;;5059569;28;20048;-66
2023/06/25 03:52:49;;;;;;;6.13;5.22;;;;;;;;;;5043182;28;20041;-67
2023/06/25 03:55:16;;;;;;;6.15;5.55;;;;;;;;;;5059577;28;20040;-67
2023/06/25 03:57:42;;;;;;;8.15;5.80;;;;;;;;;;5042950;28;20045;-67
2023/06/25 04:00:08;;;;;;;7.65;5.72;;;;;;;;;;5042977;28;20559;-67
2023/06/25 04:02:38;;;;;;;7.10;5.45;;;;;;;;;;5044542;28;20029;-67
2023/06/25 04:05:04;;;;;;;7.30;5.85;;;;;;;;;;5058994;28;20423;-66
2023/06/25 04:07:30;;;;;;;7.57;5.63;;;;;;;;;;5059913;28;20549;-67
2023/06/25 04:09:56;;;;;;;6.43;5.82;;;;;;;;;;5043357;28;20509;-67
2023/06/25 04:12:23;;;;;;;6.43;5.80;;;;;;;;;;5043938;28;20040;-67
2023/06/25 04:14:49;;;;;;;6.43;5.40;;;;;;;;;;5043784;28;20147;-66
2023/06/25 04:17:14;;;;;;;8.05;5.50;;;;;;;;;;5043122;28;20120;-67
2023/06/25 04:19:42;;;;;;;7.90;5.55;;;;;;;;;;5042374;28;20037;-67
2023/06/25 04:22:08;;;;;;;6.88;5.57;;;;;;;;;;5033897;28;20117;-67
2023/06/25 04:24:33;;;;;;;6.43;5.78;;;;;;;;;;5055617;28;20710;-67
2023/06/25 04:26:59;;;;;;;5.82;5.00;;;;;;;;;;5044071;28;20079;-67
2023/06/25 04:29:25;;;;;;;6.00;5.22;;;;;;;;;;5044275;28;20090;-67
2023/06/25 04:31:51;;;;;;;6.00;5.40;;;;;;;;;;5062568;28;20615;-67
2023/06/25 04:34:16;;;;;;;5.50;5.00;;;;;;;;;;5063107;28;20051;-66
2023/06/25 04:36:46;;;;;;;5.40;4.90;;;;;;;;;;5062248;28;20121;-67
2023/06/25 04:39:11;;;;;;;6.28;5.25;;;;;;;;;;5046436;28;21073;-67
2023/06/25 04:41:37;;;;;;;6.47;5.35;;;;;;;;;;5063537;28;20110;-67
2023/06/25 04:44:03;;;;;;;4.93;4.50;;;;;;;;;;5046533;28;20613;-67
2023/06/25 04:46:29;;;;;;;5.20;4.70;;;;;;;;;;5045377;28;20025;-67
2023/06/25 04:48:55;;;;;;;5.10;4.60;;;;;;;;;;5046235;28;20030;-66
2023/06/25 04:51:20;;;;;;;5.50;5.00;;;;;;;;;;5063172;28;20033;-67
2023/06/25 04:53:46;;;;;;;5.13;4.63;;;;;;;;;;5048069;28;20029;-67
2023/06/25 04:56:11;;;;;;;5.57;4.97;;;;;;;;;;5045463;28;20140;-67
2023/06/25 04:58:37;;;;;;;6.40;5.20;;;;;;;;;;5047556;28;20037;-66
2023/06/25 05:01:03;;;;;;;5.97;5.10;;;;;;;;;;5046387;28;20040;-67
2023/06/25 05:03:29;;;;;;;5.55;5.05;;;;;;;;;;5047008;28;20036;-70
2023/06/25 05:05:54;;;;;;;6.35;5.45;;;;;;;;;;5047618;28;20048;-70
2023/06/25 05:08:20;;;;;;;6.10;5.07;;;;;;;;;;5048060;28;20032;-70
2023/06/25 05:10:46;;;;;;;5.20;4.70;;;;;;;;;;5048274;28;20116;-70
2023/06/25 05:13:11;;;;;;;5.57;5.07;;;;;;;;;;5047631;28;20424;-69
2023/06/25 05:15:39;;;;;;;6.95;4.75;;;;;;;;;;5062550;28;20041;-69
2023/06/25 05:18:07;;;;;;;5.47;4.88;;;;;;;;;;5046168;28;20495;-69
2023/06/25 05:20:35;;;;;;;5.35;4.50;;;;;;;;;;5047127;28;20037;-69
2023/06/25 05:23:05;;;;;;;5.10;4.60;;;;;;;;;;5046276;28;20029;-68
2023/06/25 05:25:34;;;;;;;4.95;4.47;;;;;;;;;;5046317;28;20029;-68
2023/06/25 05:28:04;;;;;;;4.68;4.25;;;;;;;;;;5046553;28;20060;-68
2023/06/25 05:30:30;;;;;;;5.22;4.57;;;;;;;;;;5046434;28;20125;-67
2023/06/25 05:32:56;;;;;;;5.32;4.57;;;;;;;;;;5046583;28;20050;-70
2023/06/25 05:35:23;;;;;;;5.18;4.65;;;;;;;;;;5047216;28;20044;-68
2023/06/25 05:37:49;;;;;;;5.50;4.32;;;;;;;;;;5046463;28;20031;-68
2023/06/25 05:40:15;;;;;;;4.70;4.22;;;;;;;;;;5049940;28;20040;-68
2023/06/25 05:42:41;;;;;;;7.07;4.70;;;;;;;;;;5046554;28;20083;-69
2023/06/25 05:45:07;;;;;;;4.93;4.43;;;;;;;;;;5046442;28;20507;-68
2023/06/25 05:47:33;;;;;;;5.82;4.72;;;;;;;;;;5047181;28;20399;-67
2023/06/25 05:49:59;;;;;;;5.63;4.18;;;;;;;;;;5054011;28;20040;-67
2023/06/25 05:52:25;;;;;;;6.90;4.63;;;;;;;;;;5046378;28;20037;-67
2023/06/25 05:54:50;;;;;;;6.60;4.85;;;;;;;;;;5052847;28;20045;-67
2023/06/25 05:57:16;;;;;;;6.30;4.60;;;;;;;;;;5052390;28;20102;-67
2023/06/25 05:59:41;;;;;;;5.85;4.80;;;;;;;;;;5048827;28;20132;-67
2023/06/25 06:02:11;;;;;;;4.82;4.30;;;;;;;;;;5041104;28;20044;-67
2023/06/25 06:04:36;;;;;;;6.47;4.47;;;;;;;;;;5043191;28;20071;-67
2023/06/25 06:07:02;;;;;;;5.32;4.50;;;;;;;;;;5044309;28;20060;-67
2023/06/25 06:09:28;;;;;;;5.22;4.40;;;;;;;;;;5044361;28;20029;-67
2023/06/25 06:11:54;;;;;;;6.75;4.18;;;;;;;;;;5045882;28;20052;-67
2023/06/25 06:14:19;;;;;;;7.28;4.03;;;;;;;;;;5045289;28;20108;-67
2023/06/25 06:16:45;;;;;;;4.85;4.15;;;;;;;;;;5045213;28;20396;-67
2023/06/25 06:19:10;;;;;;;4.97;4.30;;;;;;;;;;5045177;28;20029;-67
2023/06/25 06:21:36;;;;;;;4.88;4.32;;;;;;;;;;5045284;28;20112;-67
2023/06/25 06:24:01;;;;;;;5.68;4.10;;;;;;;;;;5045800;28;20029;-67
2023/06/25 06:26:27;;;;;;;5.65;4.38;;;;;;;;;;5045329;28;20044;-67
2023/06/25 06:28:53;;;;;;;5.50;4.28;;;;;;;;;;5045404;28;20033;-67
2023/06/25 06:31:21;;;;;;;4.55;4.10;;;;;;;;;;5045895;28;20061;-67
2023/06/25 06:33:46;;;;;;;6.72;4.22;;;;;;;;;;5041561;28;20047;-67
2023/06/25 06:36:12;;;;;;;9.23;4.90;;;;;;;;;;5043910;28;20070;-67
2023/06/25 06:38:38;;;;;;;4.15;3.67;;;;;;;;;;5045299;28;20037;-67
2023/06/25 06:41:04;;;;;;;5.18;4.53;;;;;;;;;;5046160;28;20067;-67
2023/06/25 06:43:30;;;;;;;4.85;4.35;;;;;;;;;;5045581;28;20535;-67
2023/06/25 06:45:56;;;;;;;4.80;4.25;;;;;;;;;;5046268;28;20111;-67
2023/06/25 06:48:21;;;;;;;5.97;4.63;;;;;;;;;;5045945;28;20103;-67
2023/06/25 06:50:47;;;;;;;5.82;4.50;;;;;;;;;;5043885;28;20032;-67
2023/06/25 06:53:13;;;;;;;7.30;4.68;;;;;;;;;;5046488;28;20104;-67
2023/06/25 06:55:38;;;;;;;4.82;4.28;;;;;;;;;;5045822;28;20121;-67
2023/06/25 06:58:04;;;;;;;4.80;4.30;;;;;;;;;;5044777;28;20123;-67
2023/06/25 07:00:30;;;;;;;4.80;4.30;;;;;;;;;;5044013;28;20073;-68
2023/06/25 07:02:57;;;;;;;5.13;4.30;;;;;;;;;;5043499;28;20041;-67
2023/06/25 07:05:23;;;;;;;6.97;4.55;;;;;;;;;;5045004;28;20044;-67
2023/06/25 07:07:48;;;;;;;4.85;4.20;;;;;;;;;;5045329;28;20045;-67
2023/06/25 07:10:14;;;;;;;4.80;4.35;;;;;;;;;;5043105;28;20064;-67
2023/06/25 07:12:40;;;;;;;5.90;4.80;;;;;;;;;;5045078;28;20039;-67
2023/06/25 07:15:06;;;;;;;6.57;4.38;;;;;;;;;;5045019;28;20071;-67
2023/06/25 07:17:31;;;;;;;5.30;4.43;;;;;;;;;;5045078;28;20116;-67
2023/06/25 07:19:57;;;;;;;5.82;4.47;;;;;;;;;;5043038;28;20159;-68
2023/06/25 07:22:22;;;;;;;5.00;4.05;;;;;;;;;;5044730;28;20037;-67
2023/06/25 07:24:48;;;;;;;5.57;4.75;;;;;;;;;;5044557;28;20373;-67
2023/06/25 07:27:14;;;;;;;5.65;5.00;;;;;;;;;;5044341;28;20045;-67
2023/06/25 07:29:39;;;;;;;5.63;4.45;;;;;;;;;;5044278;28;20403;-69
2023/06/25 07:32:06;;;;;;;5.30;4.80;;;;;;;;;;5044950;28;20041;-68
2023/06/25 07:34:32;;;;;;;7.55;5.15;;;;;;;;;;5044679;28;20036;-68
2023/06/25 07:36:57;;;;;;;4.90;4.43;;;;;;;;;;5044525;28;20503;-66
2023/06/25 07:39:33;;;;;;;5.07;4.57;;;;;;;;;;5039432;28;20045;-67
2023/06/25 07:41:59;;;;;;;6.03;4.82;;;;;;;;;;5042091;28;20432;-67
2023/06/25 07:44:25;;;;;;;6.70;4.88;;;;;;;;;;5042847;28;20041;-67
2023/06/25 07:46:53;;;;;;;;;;;;;;;;;;5042532;28;20385;-67
2023/06/25 07:49:19;;;;;;;6.07;4.72;;;;;;;;;;5042573;28;19921;-67
2023/06/25 07:51:50;;;;;;;5.70;4.70;;;;;;;;;;5043157;28;20033;-66
2023/06/25 07:54:15;;;;;;;5.82;5.10;;;;;;;;;;5041871;28;20043;-67
2023/06/25 07:56:41;;;;;;;5.45;4.90;;;;;;;;;;5043475;28;20033;-67
2023/06/25 07:59:07;;;;;;;5.70;5.10;;;;;;;;;;5042453;28;21437;-67
2023/06/25 08:01:33;;;;;;;7.55;4.50;;;;;;;;;;5041391;28;20036;-67
2023/06/25 08:03:58;;;;;;;5.63;5.07;;;;;;;;;;5041398;28;20041;-67
2023/06/25 08:06:24;;;;;;;6.35;5.22;;;;;;;;;;5042623;28;20029;-67
2023/06/25 08:08:49;;;;;;;4.60;4.20;;;;;;;;;;5041413;28;20085;-67
2023/06/25 08:11:15;;;;;;;5.28;4.78;;;;;;;;;;5056990;28;20488;-67
2023/06/25 08:13:40;;;;;;;5.90;4.80;;;;;;;;;;5041547;28;20048;-67
2023/06/25 08:16:06;;;;;;;7.00;4.70;;;;;;;;;;5042343;28;20041;-67
2023/06/25 08:18:32;;;;;;;7.05;4.90;;;;;;;;;;5042121;28;20480;-67
2023/06/25 08:20:57;;;;;;;5.78;4.82;;;;;;;;;;5039283;28;20940;-67
2023/06/25 08:23:23;;;;;;;7.10;5.20;;;;;;;;;;5041904;28;20040;-67
2023/06/25 08:25:48;;;;;;;6.30;4.30;;;;;;;;;;5042359;28;20040;-67
2023/06/25 08:28:14;;;;;;;5.78;4.55;;;;;;;;;;5041259;28;20048;-68
2023/06/25 08:30:40;;;;;;;5.38;4.22;;;;;;;;;;5041628;28;20504;-68
2023/06/25 08:33:05;;;;;;;5.60;4.57;;;;;;;;;;5042502;28;20037;-67
2023/06/25 08:35:31;;;;;;;5.72;4.38;;;;;;;;;;5042155;28;20078;-68
2023/06/25 08:37:57;;;;;;;5.43;4.40;;;;;;;;;;5041717;28;20033;-68
2023/06/25 08:40:24;;;;;;;4.68;4.18;;;;;;;;;;5042106;28;20041;-68
2023/06/25 08:42:50;;;;;;;4.28;3.88;;;;;;;;;;5040811;28;20033;-67
2023/06/25 08:45:16;;;;;;;6.05;4.20;;;;;;;;;;5041531;28;20033;-68
2023/06/25 08:47:43;;;;;;;5.53;4.05;;;;;;;;;;5042362;28;20071;-67
2023/06/25 08:50:09;;;;;;;4.63;4.00;;;;;;;;;;5042702;28;20056;-68
2023/06/25 08:52:34;;;;;;;4.70;4.20;;;;;;;;;;5042549;28;20033;-67
2023/06/25 08:55:00;;;;;;;4.93;4.28;;;;;;;;;;5041334;28;20074;-67
2023/06/25 08:57:26;;;;;;;4.95;4.45;;;;;;;;;;5041894;28;20033;-67
2023/06/25 08:59:52;;;;;;;6.05;4.82;;;;;;;;;;5041536;28;20488;-68
2023/06/25 09:02:18;;;;;;;5.68;4.45;;;;;;;;;;5039709;28;20065;-69
2023/06/25 09:04:46;;;;;;;4.90;4.10;;;;;;;;;;5037162;28;20039;-69
2023/06/25 09:07:15;;;;;;;8.10;4.40;;;;;;;;;;5037558;28;20114;-69
2023/06/25 09:09:42;;;;;;;6.70;4.28;;;;;;;;;;5036471;28;20047;-68
2023/06/25 09:12:09;;;;;;;4.13;3.70;;;;;;;;;;5039054;28;20029;-69
2023/06/25 09:14:35;;;;;;;5.00;4.50;;;;;;;;;;5041473;28;21197;-69
2023/06/25 09:17:02;;;;;;;4.95;4.35;;;;;;;;;;5041079;28;20116;-68
2023/06/25 09:19:28;;;;;;;5.28;4.10;;;;;;;;;;5041425;28;20040;-68
2023/06/25 09:21:53;;;;;;;5.20;4.57;;;;;;;;;;5041255;28;20037;-68
2023/06/25 09:24:21;;;;;;;5.03;4.30;;;;;;;;;;5041499;28;20514;-68
2023/06/25 09:26:51;;;;;;;5.43;4.50;;;;;;;;;;5042111;28;20112;-68
2023/06/25 09:29:19;;;;;;;5.28;4.40;;;;;;;;;;5041880;28;20040;-69
2023/06/25 09:31:46;;;;;;;7.43;4.35;;;;;;;;;;5042459;28;20124;-69
2023/06/25 09:34:15;;;;;;;5.97;4.45;;;;;;;;;;5039957;28;20127;-68
2023/06/25 09:36:40;;;;;;;5.25;4.32;;;;;;;;;;5041948;28;20512;-68
2023/06/25 09:39:07;;;;;;;6.80;4.97;;;;;;;;;;5040704;28;20047;-68
2023/06/25 09:41:34;;;;;;;6.20;4.65;;;;;;;;;;5038173;28;20052;-68
2023/06/25 09:44:05;;;;;;;5.18;4.47;;;;;;;;;;5039845;28;20621;-69
2023/06/25 09:46:38;;;;;;;5.78;4.75;;;;;;;;;;5040186;28;20043;-69
2023/06/25 09:49:04;;;;;;;5.60;4.63;;;;;;;;;;5040191;28;20036;-70
2023/06/25 09:51:39;;;;;;;4.70;4.20;;;;;;;;;;5039728;28;20071;-68
2023/06/25 09:54:08;;;;;;;5.15;4.32;;;;;;;;;;5040231;28;20045;-68
2023/06/25 09:56:34;;;;;;;4.38;3.95;;;;;;;;;;5039506;28;20407;-68
2023/06/25 09:59:01;;;;;;;5.57;4.55;;;;;;;;;;5041266;28;20043;-68
2023/06/25 10:01:27;;;;;;;6.15;4.63;;;;;;;;;;5039245;28;20511;-67
2023/06/25 10:03:52;;;;;;;6.18;4.72;;;;;;;;;;5044456;28;20028;-68
2023/06/25 10:06:18;;;;;;;4.72;4.22;;;;;;;;;;5041798;28;20025;-68
2023/06/25 10:08:44;;;;;;;5.78;4.90;;;;;;;;;;5044466;28;20059;-67
2023/06/25 10:11:09;;;;;;;5.25;4.72;;;;;;;;;;5043102;28;20037;-68
2023/06/25 10:13:40;;;;;;;5.30;4.43;;;;;;;;;;5043898;28;20047;-67
2023/06/25 10:16:05;;;;;;;5.82;4.97;;;;;;;;;;5042784;28;20563;-68
2023/06/25 10:18:41;;;;;;;5.28;4.60;;;;;;;;;;5039732;28;20035;-67
2023/06/25 10:21:07;;;;;;;6.03;4.32;;;;;;;;;;5041366;28;20049;-67
2023/06/25 10:23:36;;;;;;;6.97;4.32;;;;;;;;;;5040214;28;20121;-68
2023/06/25 10:26:03;;;;;;;5.35;4.55;;;;;;;;;;5044070;28;20029;-68
2023/06/25 10:28:30;;;;;;;4.93;4.00;;;;;;;;;;5041143;28;20168;-67
2023/06/25 10:30:57;;;;;;;6.07;4.10;;;;;;;;;;5042972;28;20033;-67
2023/06/25 10:33:24;;;;;;;6.43;4.53;;;;;;;;;;5044945;28;20041;-68
2023/06/25 10:35:57;;;;;;;7.57;4.30;;;;;;;;;;5045105;28;20096;-67
2023/06/25 10:38:23;;;;;;;5.22;4.18;;;;;;;;;;5040050;28;20736;-67
2023/06/25 10:40:49;;;;;;;5.00;3.47;;;;;;;;;;5044022;28;20582;-67
2023/06/25 10:43:18;;;;;;;5.65;4.40;;;;;;;;;;5044385;28;20029;-67
2023/06/25 10:45:49;;;;;;;6.53;4.72;;;;;;;;;;5042588;28;20094;-67
2023/06/25 10:48:15;;;;;;;5.72;4.32;;;;;;;;;;5043702;28;20056;-67
2023/06/25 10:50:40;;;;;;;4.72;3.83;;;;;;;;;;5044007;28;20484;-67
2023/06/25 10:53:11;;;;;;;5.43;4.32;;;;;;;;;;5043601;28;20040;-67
2023/06/25 10:55:38;;;;;;;5.10;4.15;;;;;;;;;;5043920;28;20048;-67
2023/06/25 10:58:04;;;;;;;4.32;3.80;;;;;;;;;;5044071;28;20407;-69
2023/06/25 11:00:31;;;;;;;5.32;4.25;;;;;;;;;;5044920;28;20496;-67
2023/06/25 11:02:57;;;;;;;5.03;4.05;;;;;;;;;;5042172;28;20054;-67
2023/06/25 11:05:52;;;;;;;6.05;4.45;;;;;;;;;;5043922;28;20033;-67
2023/06/25 11:08:23;;;;;;;6.32;4.82;;;;;;;;;;4981920;28;20102;-68
2023/06/25 11:10:49;;;;;;;5.15;4.15;;;;;;;;;;4981654;28;20038;-68
2023/06/25 11:13:15;;;;;;;4.53;3.75;;;;;;;;;;4981585;28;20078;-68
2023/06/25 11:15:41;;;;;;;5.80;4.25;;;;;;;;;;4981672;28;20045;-68
2023/06/25 11:18:09;;;;;;;5.22;4.10;;;;;;;;;;4980724;28;20050;-67
2023/06/25 11:20:38;;;;;;;6.13;4.47;;;;;;;;;;4980037;28;20038;-67
2023/06/25 11:23:04;;;;;;;6.07;4.45;;;;;;;;;;4981599;28;20046;-67
2023/06/25 11:25:30;;;;;;;4.43;3.85;;;;;;;;;;4981075;28;20058;-67
2023/06/25 11:28:05;;;;;;;5.10;4.50;;;;;;;;;;4980612;28;20045;-67
2023/06/25 11:30:31;;;;;;;4.80;4.18;;;;;;;;;;4981241;28;20098;-67
2023/06/25 11:33:09;;;;;;;6.53;4.47;;;;;;;;;;4980931;28;20128;-67
2023/06/25 11:35:35;;;;;;;5.13;4.30;;;;;;;;;;4981369;28;20054;-68
2023/06/25 11:38:01;;;;;;;5.40;4.43;;;;;;;;;;4964316;28;20112;-67
2023/06/25 11:40:31;;;;;;;6.30;4.53;;;;;;;;;;4979350;28;20082;-67
2023/06/25 11:42:57;;;;;;;5.72;4.07;;;;;;;;;;4980930;28;20035;-67
2023/06/25 11:45:23;;;;;;;6.43;4.47;;;;;;;;;;5027272;28;20041;-67
2023/06/25 11:47:50;;;;;;;4.28;3.88;;;;;;;;;;5041140;28;20107;-67
2023/06/25 11:50:18;;;;;;;5.13;4.63;;;;;;;;;;5042314;28;20041;-67
2023/06/25 11:52:44;;;;;;;8.40;4.90;;;;;;;;;;5041476;28;20063;-67
2023/06/25 11:55:11;;;;;;;6.20;4.82;;;;;;;;;;5042291;28;20036;-67
2023/06/25 11:57:38;;;;;;;5.75;4.60;;;;;;;;;;5042656;28;20558;-68
2023/06/25 12:00:04;;;;;;;7.55;4.53;;;;;;;;;;5041966;28;20037;-68
2023/06/25 12:02:30;;;;;;;5.22;4.65;;;;;;;;;;5042494;28;20611;-67
2023/06/25 12:04:56;;;;;;;6.70;4.75;;;;;;;;;;5042245;28;20033;-67
2023/06/25 12:07:21;;;;;;;5.07;4.25;;;;;;;;;;5042743;28;20032;-67
2023/06/25 12:09:47;;;;;;;5.22;3.88;;;;;;;;;;5041667;28;20036;-67
2023/06/25 12:12:13;;;;;;;5.85;4.65;;;;;;;;;;5041543;28;20432;-67
2023/06/25 12:14:38;;;;;;;8.70;4.65;;;;;;;;;;5042275;28;20090;-67
2023/06/25 12:17:04;;;;;;;4.40;4.00;;;;;;;;;;5042453;28;20071;-67
2023/06/25 12:19:30;;;;;;;6.00;4.60;;;;;;;;;;5041005;28;20037;-67
2023/06/25 12:21:59;;;;;;;5.10;4.35;;;;;;;;;;5042529;28;20072;-67
2023/06/25 12:24:24;;;;;;;5.68;4.70;;;;;;;;;;5043008;28;20056;-67
2023/06/25 12:26:50;;;;;;;5.72;4.72;;;;;;;;;;5042838;28;20036;-67
2023/06/25 12:29:16;;;;;;;5.30;4.45;;;;;;;;;;5041237;28;20037;-67
2023/06/25 12:31:41;;;;;;;5.25;4.63;;;;;;;;;;5042556;28;20060;-67
2023/06/25 12:34:07;;;;;;;6.97;4.38;;;;;;;;;;5042834;28;20073;-67
2023/06/25 12:36:32;;;;;;;6.85;4.80;;;;;;;;;;5041828;28;20044;-67
2023/06/25 12:39:00;;;;;;;6.60;4.88;;;;;;;;;;5042188;28;20037;-67
2023/06/25 12:41:26;;;;;;;4.80;4.32;;;;;;;;;;5042225;28;20048;-67
2023/06/25 12:43:52;;;;;;;4.70;4.03;;;;;;;;;;5042618;28;20681;-67
2023/06/25 12:46:17;;;;;;;5.38;4.20;;;;;;;;;;5041587;28;20029;-67
2023/06/25 12:48:43;;;;;;;6.15;4.40;;;;;;;;;;5050420;28;20024;-67
2023/06/25 12:51:08;;;;;;;6.38;4.60;;;;;;;;;;5049804;28;20028;-67
2023/06/25 12:53:34;;;;;;;5.93;4.00;;;;;;;;;;5045210;28;20408;-67
2023/06/25 12:56:00;;;;;;;5.25;4.60;;;;;;;;;;5046071;28;20051;-67
2023/06/25 12:58:26;;;;;;;6.25;4.20;;;;;;;;;;5045509;28;20033;-68
2023/06/25 13:00:52;;;;;;;6.18;4.72;;;;;;;;;;5047098;28;20032;-67
2023/06/25 13:03:18;;;;;;;5.65;4.72;;;;;;;;;;5045492;28;20029;-67
2023/06/25 13:05:45;;;;;;;5.18;4.47;;;;;;;;;;5046034;28;20040;-67
2023/06/25 13:08:13;;;;;;;6.28;4.38;;;;;;;;;;5043707;28;20040;-69
2023/06/25 13:10:39;;;;;;;8.17;4.20;;;;;;;;;;5046172;28;20627;-68
2023/06/25 13:13:05;;;;;;;6.63;4.55;;;;;;;;;;5044753;28;20846;-68
2023/06/25 13:15:31;;;;;;;5.28;4.15;;;;;;;;;;5045482;28;20037;-68
2023/06/25 13:17:57;;;;;;;4.85;4.35;;;;;;;;;;5044415;28;20473;-69
2023/06/25 13:20:23;;;;;;;5.60;5.00;;;;;;;;;;5045497;28;20041;-69
2023/06/25 13:22:49;;;;;;;5.28;4.50;;;;;;;;;;5044333;28;20089;-69
2023/06/25 13:25:14;;;;;;;7.03;4.43;;;;;;;;;;5047614;28;20083;-68
2023/06/25 13:27:40;;;;;;;5.93;3.65;;;;;;;;;;5044955;28;20802;-68
2023/06/25 13:30:07;;;;;;;5.22;4.32;;;;;;;;;;5044755;28;20040;-68
2023/06/25 13:32:32;;;;;;;5.18;4.30;;;;;;;;;;5045238;28;20040;-68
2023/06/25 13:34:58;;;;;;;6.50;4.88;;;;;;;;;;5045176;28;20037;-69
2023/06/25 13:37:24;;;;;;;7.03;4.70;;;;;;;;;;5045682;28;20041;-68
2023/06/25 13:39:50;;;;;;;5.90;4.50;;;;;;;;;;5044128;28;20041;-68
2023/06/25 13:42:16;;;;;;;6.65;4.95;;;;;;;;;;5045380;28;20408;-68
2023/06/25 13:44:41;;;;;;;5.47;4.53;;;;;;;;;;5046241;28;20057;-68
2023/06/25 13:47:07;;;;;;;5.40;4.32;;;;;;;;;;5042306;28;20045;-69
2023/06/25 13:49:33;;;;;;;5.38;4.43;;;;;;;;;;5044782;28;20465;-69
2023/06/25 13:51:59;;;;;;;5.15;4.53;;;;;;;;;;5043568;28;20045;-69
2023/06/25 13:54:24;;;;;;;5.82;4.65;;;;;;;;;;5044269;28;20044;-68
2023/06/25 13:56:51;;;;;;;5.22;4.72;;;;;;;;;;5044401;28;20033;-68
2023/06/25 13:59:18;;;;;;;8.02;4.85;;;;;;;;;;5042964;28;20107;-69
2023/06/25 14:01:44;;;;;;;6.30;4.97;;;;;;;;;;5045443;28;20082;-68
2023/06/25 14:04:10;;;;;;;6.28;4.30;;;;;;;;;;5042189;28;20037;-68
2023/06/25 14:06:36;;;;;;;6.20;4.80;;;;;;;;;;5044594;28;20025;-69
2023/06/25 14:09:02;;;;;;;5.30;4.55;;;;;;;;;;5044847;28;20044;-68
2023/06/25 14:11:27;;;;;;;5.82;4.70;;;;;;;;;;5044656;28;20041;-69
2023/06/25 14:13:53;;;;;;;7.68;4.30;;;;;;;;;;5042333;28;20040;-68
2023/06/25 14:16:19;;;;;;;5.45;4.43;;;;;;;;;;5043403;28;20033;-68
2023/06/25 14:18:44;;;;;;;6.90;4.43;;;;;;;;;;5044699;28;20040;-69
2023/06/25 14:21:10;;;;;;;5.47;4.35;;;;;;;;;;5044253;28;20036;-69
2023/06/25 14:23:36;;;;;;;5.50;4.70;;;;;;;;;;5043462;28;20040;-69
2023/06/25 14:26:06;;;;;;;6.22;4.65;;;;;;;;;;5044591;28;20048;-69
2023/06/25 14:28:32;;;;;;;7.97;4.75;;;;;;;;;;5043779;28;20512;-69
2023/06/25 14:30:59;;;;;;;5.43;4.47;;;;;;;;;;5044995;28;20041;-66
2023/06/25 14:33:29;;;;;;;5.70;5.10;;;;;;;;;;5043467;28;20431;-66
2023/06/25 14:35:55;;;;;;;7.07;4.32;;;;;;;;;;5044821;28;20029;-66
2023/06/25 14:38:20;;;;;;;6.47;5.00;;;;;;;;;;5044391;28;20476;-67